sensor_id;sensor_type;location;lat;lon;timestamp;P1;durP1;ratioP1;P2;durP2;ratioP2
23222;SDS011;11780;13.904;100.620;2024-01-27T00:01:04;22.05;;;19.77;;
23222;SDS011;11780;13.904;100.620;2024-01-27T00:03:35;23.47;;;20.30;;
23222;SDS011;11780;13.904;100.620;2024-01-27T00:06:06;29.05;;;19.98;;
23222;SDS011;11780;13.904;100.620;2024-01-27T00:08:36;24.83;;;20.55;;
23222;SDS011;11780;13.904;100.620;2024-01-27T00:13:37;24.55;;;19.85;;
23222;SDS011;11780;13.904;100.620;2024-01-27T00:16:08;22.30;;;20.10;;
23222;SDS011;11780;13.904;100.620;2024-01-27T00:18:39;24.52;;;20.45;;
23222;SDS011;11780;13.904;100.620;2024-01-27T00:21:10;25.60;;;20.40;;
23222;SDS011;11780;13.904;100.620;2024-01-27T00:23:40;25.30;;;20.43;;
23222;SDS011;11780;13.904;100.620;2024-01-27T00:26:11;22.70;;;20.40;;
23222;SDS011;11780;13.904;100.620;2024-01-27T00:28:41;22.80;;;20.38;;
23222;SDS011;11780;13.904;100.620;2024-01-27T00:31:11;23.17;;;20.67;;
23222;SDS011;11780;13.904;100.620;2024-01-27T00:33:42;24.40;;;20.08;;
23222;SDS011;11780;13.904;100.620;2024-01-27T00:36:12;23.40;;;20.58;;
23222;SDS011;11780;13.904;100.620;2024-01-27T00:38:43;23.83;;;20.57;;
23222;SDS011;11780;13.904;100.620;2024-01-27T00:41:16;23.17;;;20.58;;
23222;SDS011;11780;13.904;100.620;2024-01-27T00:43:47;25.23;;;20.95;;
23222;SDS011;11780;13.904;100.620;2024-01-27T00:46:18;24.55;;;20.52;;
23222;SDS011;11780;13.904;100.620;2024-01-27T00:48:48;24.92;;;21.08;;
23222;SDS011;11780;13.904;100.620;2024-01-27T00:51:18;23.92;;;21.30;;
23222;SDS011;11780;13.904;100.620;2024-01-27T00:53:49;22.27;;;19.88;;
23222;SDS011;11780;13.904;100.620;2024-01-27T00:56:20;23.13;;;20.60;;
23222;SDS011;11780;13.904;100.620;2024-01-27T00:58:50;24.55;;;21.05;;
23222;SDS011;11780;13.904;100.620;2024-01-27T01:01:21;24.70;;;20.33;;
23222;SDS011;11780;13.904;100.620;2024-01-27T01:03:52;25.57;;;20.83;;
23222;SDS011;11780;13.904;100.620;2024-01-27T01:06:22;24.27;;;20.40;;
23222;SDS011;11780;13.904;100.620;2024-01-27T01:08:53;23.75;;;20.35;;
23222;SDS011;11780;13.904;100.620;2024-01-27T01:11:24;23.20;;;20.70;;
23222;SDS011;11780;13.904;100.620;2024-01-27T01:13:54;23.17;;;20.73;;
23222;SDS011;11780;13.904;100.620;2024-01-27T01:16:24;24.95;;;20.55;;
23222;SDS011;11780;13.904;100.620;2024-01-27T01:18:55;22.98;;;19.98;;
23222;SDS011;11780;13.904;100.620;2024-01-27T01:21:25;23.23;;;20.83;;
23222;SDS011;11780;13.904;100.620;2024-01-27T01:23:56;23.07;;;20.57;;
23222;SDS011;11780;13.904;100.620;2024-01-27T01:26:27;24.40;;;21.58;;
23222;SDS011;11780;13.904;100.620;2024-01-27T01:28:57;24.48;;;21.55;;
23222;SDS011;11780;13.904;100.620;2024-01-27T01:31:27;23.27;;;20.77;;
23222;SDS011;11780;13.904;100.620;2024-01-27T01:33:58;24.63;;;21.65;;
23222;SDS011;11780;13.904;100.620;2024-01-27T01:36:28;25.47;;;22.13;;
23222;SDS011;11780;13.904;100.620;2024-01-27T01:38:59;29.35;;;22.38;;
23222;SDS011;11780;13.904;100.620;2024-01-27T01:41:29;23.70;;;20.88;;
23222;SDS011;11780;13.904;100.620;2024-01-27T01:44:00;24.77;;;22.13;;
23222;SDS011;11780;13.904;100.620;2024-01-27T01:46:30;26.55;;;20.75;;
23222;SDS011;11780;13.904;100.620;2024-01-27T01:49:00;28.17;;;21.98;;
23222;SDS011;11780;13.904;100.620;2024-01-27T01:51:31;26.58;;;21.20;;
23222;SDS011;11780;13.904;100.620;2024-01-27T01:54:01;25.40;;;22.63;;
23222;SDS011;11780;13.904;100.620;2024-01-27T01:56:32;25.33;;;22.63;;
23222;SDS011;11780;13.904;100.620;2024-01-27T01:59:03;26.00;;;22.58;;
23222;SDS011;11780;13.904;100.620;2024-01-27T02:01:33;29.02;;;22.73;;
23222;SDS011;11780;13.904;100.620;2024-01-27T02:04:04;28.75;;;22.20;;
23222;SDS011;11780;13.904;100.620;2024-01-27T02:06:34;27.63;;;23.13;;
23222;SDS011;11780;13.904;100.620;2024-01-27T02:09:05;26.90;;;23.27;;
23222;SDS011;11780;13.904;100.620;2024-01-27T02:11:35;25.63;;;21.80;;
23222;SDS011;11780;13.904;100.620;2024-01-27T02:14:06;26.63;;;22.38;;
23222;SDS011;11780;13.904;100.620;2024-01-27T02:16:36;28.98;;;22.13;;
23222;SDS011;11780;13.904;100.620;2024-01-27T02:19:07;25.60;;;22.90;;
23222;SDS011;11780;13.904;100.620;2024-01-27T02:21:38;25.17;;;21.95;;
23222;SDS011;11780;13.904;100.620;2024-01-27T02:24:08;31.87;;;22.50;;
23222;SDS011;11780;13.904;100.620;2024-01-27T02:26:39;25.40;;;22.75;;
23222;SDS011;11780;13.904;100.620;2024-01-27T02:29:10;25.48;;;22.73;;
23222;SDS011;11780;13.904;100.620;2024-01-27T02:31:40;28.00;;;22.92;;
23222;SDS011;11780;13.904;100.620;2024-01-27T02:34:11;24.93;;;21.60;;
23222;SDS011;11780;13.904;100.620;2024-01-27T02:36:41;26.88;;;22.85;;
23222;SDS011;11780;13.904;100.620;2024-01-27T02:39:13;25.55;;;21.95;;
23222;SDS011;11780;13.904;100.620;2024-01-27T02:41:44;24.60;;;22.00;;
23222;SDS011;11780;13.904;100.620;2024-01-27T02:44:15;24.35;;;21.75;;
23222;SDS011;11780;13.904;100.620;2024-01-27T02:46:45;25.42;;;22.25;;
23222;SDS011;11780;13.904;100.620;2024-01-27T02:49:15;30.02;;;23.48;;
23222;SDS011;11780;13.904;100.620;2024-01-27T02:51:46;27.33;;;22.35;;
23222;SDS011;11780;13.904;100.620;2024-01-27T02:54:17;27.70;;;22.42;;
23222;SDS011;11780;13.904;100.620;2024-01-27T02:56:47;28.23;;;22.73;;
23222;SDS011;11780;13.904;100.620;2024-01-27T02:59:18;26.60;;;23.50;;
23222;SDS011;11780;13.904;100.620;2024-01-27T03:01:48;25.63;;;21.98;;
23222;SDS011;11780;13.904;100.620;2024-01-27T03:04:19;25.33;;;20.88;;
23222;SDS011;11780;13.904;100.620;2024-01-27T03:06:49;28.40;;;21.60;;
23222;SDS011;11780;13.904;100.620;2024-01-27T03:09:19;25.83;;;22.10;;
23222;SDS011;11780;13.904;100.620;2024-01-27T03:11:50;25.67;;;22.02;;
23222;SDS011;11780;13.904;100.620;2024-01-27T03:14:20;22.95;;;20.65;;
23222;SDS011;11780;13.904;100.620;2024-01-27T03:16:51;23.65;;;21.08;;
23222;SDS011;11780;13.904;100.620;2024-01-27T03:19:21;24.85;;;22.02;;
23222;SDS011;11780;13.904;100.620;2024-01-27T03:21:52;26.07;;;21.00;;
23222;SDS011;11780;13.904;100.620;2024-01-27T03:24:22;26.30;;;21.40;;
23222;SDS011;11780;13.904;100.620;2024-01-27T03:26:53;22.45;;;20.20;;
23222;SDS011;11780;13.904;100.620;2024-01-27T03:29:23;22.83;;;20.42;;
23222;SDS011;11780;13.904;100.620;2024-01-27T03:31:54;23.33;;;20.63;;
23222;SDS011;11780;13.904;100.620;2024-01-27T03:34:24;24.50;;;21.08;;
23222;SDS011;11780;13.904;100.620;2024-01-27T03:36:56;22.73;;;19.70;;
23222;SDS011;11780;13.904;100.620;2024-01-27T03:39:27;23.08;;;20.75;;
23222;SDS011;11780;13.904;100.620;2024-01-27T03:41:58;23.27;;;19.65;;
23222;SDS011;11780;13.904;100.620;2024-01-27T03:44:29;23.65;;;19.48;;
23222;SDS011;11780;13.904;100.620;2024-01-27T03:46:59;21.40;;;19.17;;
23222;SDS011;11780;13.904;100.620;2024-01-27T03:49:30;22.67;;;19.57;;
23222;SDS011;11780;13.904;100.620;2024-01-27T03:52:00;23.63;;;18.50;;
23222;SDS011;11780;13.904;100.620;2024-01-27T03:54:31;22.70;;;18.80;;
23222;SDS011;11780;13.904;100.620;2024-01-27T03:57:01;21.85;;;19.15;;
23222;SDS011;11780;13.904;100.620;2024-01-27T03:59:32;20.13;;;18.00;;
23222;SDS011;11780;13.904;100.620;2024-01-27T04:02:02;23.98;;;18.38;;
23222;SDS011;11780;13.904;100.620;2024-01-27T04:04:35;23.77;;;17.37;;
23222;SDS011;11780;13.904;100.620;2024-01-27T04:07:18;21.02;;;18.70;;
23222;SDS011;11780;13.904;100.620;2024-01-27T04:09:48;22.95;;;18.23;;
23222;SDS011;11780;13.904;100.620;2024-01-27T04:12:19;24.52;;;19.10;;
23222;SDS011;11780;13.904;100.620;2024-01-27T04:14:49;21.05;;;17.80;;
23222;SDS011;11780;13.904;100.620;2024-01-27T04:17:20;21.97;;;18.60;;
23222;SDS011;11780;13.904;100.620;2024-01-27T04:19:52;21.77;;;17.58;;
23222;SDS011;11780;13.904;100.620;2024-01-27T04:22:22;23.77;;;17.38;;
23222;SDS011;11780;13.904;100.620;2024-01-27T04:24:52;20.40;;;16.98;;
23222;SDS011;11780;13.904;100.620;2024-01-27T04:27:23;19.87;;;15.03;;
23222;SDS011;11780;13.904;100.620;2024-01-27T04:29:57;21.60;;;16.25;;
23222;SDS011;11780;13.904;100.620;2024-01-27T04:32:27;20.13;;;16.08;;
23222;SDS011;11780;13.904;100.620;2024-01-27T04:34:58;17.90;;;15.88;;
23222;SDS011;11780;13.904;100.620;2024-01-27T04:37:28;17.75;;;15.48;;
23222;SDS011;11780;13.904;100.620;2024-01-27T04:39:58;18.80;;;16.83;;
23222;SDS011;11780;13.904;100.620;2024-01-27T04:42:29;19.03;;;15.20;;
23222;SDS011;11780;13.904;100.620;2024-01-27T04:44:59;18.25;;;14.57;;
23222;SDS011;11780;13.904;100.620;2024-01-27T04:47:31;17.20;;;15.10;;
23222;SDS011;11780;13.904;100.620;2024-01-27T04:50:01;18.95;;;15.88;;
23222;SDS011;11780;13.904;100.620;2024-01-27T04:52:32;18.98;;;16.27;;
23222;SDS011;11780;13.904;100.620;2024-01-27T04:55:03;17.38;;;15.50;;
23222;SDS011;11780;13.904;100.620;2024-01-27T04:57:34;18.35;;;16.45;;
23222;SDS011;11780;13.904;100.620;2024-01-27T05:00:04;17.93;;;15.93;;
23222;SDS011;11780;13.904;100.620;2024-01-27T05:02:40;18.92;;;16.05;;
23222;SDS011;11780;13.904;100.620;2024-01-27T05:05:11;20.27;;;16.38;;
23222;SDS011;11780;13.904;100.620;2024-01-27T05:07:42;22.73;;;18.05;;
23222;SDS011;11780;13.904;100.620;2024-01-27T05:10:12;22.45;;;19.13;;
23222;SDS011;11780;13.904;100.620;2024-01-27T05:12:44;23.42;;;18.55;;
23222;SDS011;11780;13.904;100.620;2024-01-27T05:15:14;23.92;;;18.67;;
23222;SDS011;11780;13.904;100.620;2024-01-27T05:17:44;20.27;;;18.05;;
23222;SDS011;11780;13.904;100.620;2024-01-27T05:20:15;20.63;;;18.42;;
23222;SDS011;11780;13.904;100.620;2024-01-27T05:22:45;23.67;;;17.65;;
23222;SDS011;11780;13.904;100.620;2024-01-27T05:25:16;18.25;;;16.42;;
23222;SDS011;11780;13.904;100.620;2024-01-27T05:27:46;18.73;;;16.92;;
23222;SDS011;11780;13.904;100.620;2024-01-27T05:30:17;22.07;;;16.87;;
23222;SDS011;11780;13.904;100.620;2024-01-27T05:32:47;21.13;;;17.23;;
23222;SDS011;11780;13.904;100.620;2024-01-27T05:35:18;25.42;;;17.73;;
23222;SDS011;11780;13.904;100.620;2024-01-27T05:37:48;21.13;;;17.55;;
23222;SDS011;11780;13.904;100.620;2024-01-27T05:40:20;20.30;;;17.73;;
23222;SDS011;11780;13.904;100.620;2024-01-27T05:42:51;24.63;;;17.02;;
23222;SDS011;11780;13.904;100.620;2024-01-27T05:45:21;19.52;;;17.40;;
23222;SDS011;11780;13.904;100.620;2024-01-27T05:47:52;21.70;;;17.50;;
23222;SDS011;11780;13.904;100.620;2024-01-27T05:50:22;24.13;;;18.27;;
23222;SDS011;11780;13.904;100.620;2024-01-27T05:52:53;22.70;;;18.58;;
23222;SDS011;11780;13.904;100.620;2024-01-27T05:55:23;26.55;;;18.20;;
23222;SDS011;11780;13.904;100.620;2024-01-27T05:57:54;25.33;;;18.93;;
23222;SDS011;11780;13.904;100.620;2024-01-27T06:00:26;24.58;;;18.38;;
23222;SDS011;11780;13.904;100.620;2024-01-27T06:02:56;24.35;;;19.75;;
23222;SDS011;11780;13.904;100.620;2024-01-27T06:05:27;29.67;;;20.83;;
23222;SDS011;11780;13.904;100.620;2024-01-27T06:07:57;28.45;;;21.67;;
23222;SDS011;11780;13.904;100.620;2024-01-27T06:10:28;32.20;;;23.48;;
23222;SDS011;11780;13.904;100.620;2024-01-27T06:13:00;29.38;;;22.73;;
23222;SDS011;11780;13.904;100.620;2024-01-27T06:15:31;29.45;;;24.05;;
23222;SDS011;11780;13.904;100.620;2024-01-27T06:18:02;26.80;;;24.03;;
23222;SDS011;11780;13.904;100.620;2024-01-27T06:20:32;26.83;;;24.10;;
23222;SDS011;11780;13.904;100.620;2024-01-27T06:23:03;28.73;;;25.25;;
23222;SDS011;11780;13.904;100.620;2024-01-27T06:25:33;31.25;;;25.23;;
23222;SDS011;11780;13.904;100.620;2024-01-27T06:28:04;33.38;;;25.92;;
23222;SDS011;11780;13.904;100.620;2024-01-27T06:30:34;29.33;;;24.13;;
23222;SDS011;11780;13.904;100.620;2024-01-27T06:33:05;28.13;;;24.10;;
23222;SDS011;11780;13.904;100.620;2024-01-27T06:35:35;29.57;;;25.90;;
23222;SDS011;11780;13.904;100.620;2024-01-27T06:38:06;32.80;;;25.90;;
23222;SDS011;11780;13.904;100.620;2024-01-27T06:40:36;32.88;;;25.48;;
23222;SDS011;11780;13.904;100.620;2024-01-27T06:45:38;43.70;;;32.08;;
23222;SDS011;11780;13.904;100.620;2024-01-27T06:48:09;49.05;;;32.28;;
23222;SDS011;11780;13.904;100.620;2024-01-27T06:50:40;56.23;;;34.97;;
23222;SDS011;11780;13.904;100.620;2024-01-27T06:53:10;45.83;;;30.63;;
23222;SDS011;11780;13.904;100.620;2024-01-27T06:55:41;59.40;;;33.17;;
23222;SDS011;11780;13.904;100.620;2024-01-27T06:58:11;56.80;;;32.78;;
23222;SDS011;11780;13.904;100.620;2024-01-27T07:00:42;51.80;;;31.67;;
23222;SDS011;11780;13.904;100.620;2024-01-27T07:03:12;49.92;;;30.27;;
23222;SDS011;11780;13.904;100.620;2024-01-27T07:05:43;43.07;;;28.47;;
23222;SDS011;11780;13.904;100.620;2024-01-27T07:08:13;39.67;;;28.45;;
23222;SDS011;11780;13.904;100.620;2024-01-27T07:10:44;30.67;;;24.95;;
23222;SDS011;11780;13.904;100.620;2024-01-27T07:13:15;34.15;;;25.85;;
23222;SDS011;11780;13.904;100.620;2024-01-27T07:15:45;30.08;;;23.80;;
23222;SDS011;11780;13.904;100.620;2024-01-27T07:18:16;31.65;;;23.85;;
23222;SDS011;11780;13.904;100.620;2024-01-27T07:20:47;37.92;;;25.02;;
23222;SDS011;11780;13.904;100.620;2024-01-27T07:23:18;31.92;;;23.63;;
23222;SDS011;11780;13.904;100.620;2024-01-27T07:25:49;31.50;;;23.20;;
23222;SDS011;11780;13.904;100.620;2024-01-27T07:28:19;27.55;;;21.88;;
23222;SDS011;11780;13.904;100.620;2024-01-27T07:30:49;25.90;;;22.97;;
23222;SDS011;11780;13.904;100.620;2024-01-27T07:33:20;27.50;;;21.90;;
23222;SDS011;11780;13.904;100.620;2024-01-27T07:35:50;26.88;;;20.90;;
23222;SDS011;11780;13.904;100.620;2024-01-27T07:38:21;27.93;;;21.23;;
23222;SDS011;11780;13.904;100.620;2024-01-27T07:40:51;30.35;;;22.10;;
23222;SDS011;11780;13.904;100.620;2024-01-27T07:43:21;26.48;;;20.50;;
23222;SDS011;11780;13.904;100.620;2024-01-27T07:45:53;23.17;;;20.70;;
23222;SDS011;11780;13.904;100.620;2024-01-27T07:48:24;26.00;;;19.92;;
23222;SDS011;11780;13.904;100.620;2024-01-27T07:50:54;26.77;;;19.57;;
23222;SDS011;11780;13.904;100.620;2024-01-27T07:53:26;26.40;;;20.65;;
23222;SDS011;11780;13.904;100.620;2024-01-27T07:55:56;24.17;;;19.37;;
23222;SDS011;11780;13.904;100.620;2024-01-27T07:58:27;25.27;;;20.83;;
23222;SDS011;11780;13.904;100.620;2024-01-27T08:00:57;26.43;;;19.93;;
23222;SDS011;11780;13.904;100.620;2024-01-27T08:03:28;26.33;;;20.53;;
23222;SDS011;11780;13.904;100.620;2024-01-27T08:05:58;24.43;;;20.90;;
23222;SDS011;11780;13.904;100.620;2024-01-27T08:08:29;29.30;;;20.67;;
23222;SDS011;11780;13.904;100.620;2024-01-27T08:11:00;27.73;;;21.15;;
23222;SDS011;11780;13.904;100.620;2024-01-27T08:13:31;28.88;;;21.75;;
23222;SDS011;11780;13.904;100.620;2024-01-27T08:16:02;24.60;;;21.92;;
23222;SDS011;11780;13.904;100.620;2024-01-27T08:18:35;27.05;;;21.88;;
23222;SDS011;11780;13.904;100.620;2024-01-27T08:21:07;23.05;;;20.60;;
23222;SDS011;11780;13.904;100.620;2024-01-27T08:23:40;25.10;;;21.90;;
23222;SDS011;11780;13.904;100.620;2024-01-27T08:26:12;26.65;;;21.77;;
23222;SDS011;11780;13.904;100.620;2024-01-27T08:28:43;26.13;;;20.83;;
23222;SDS011;11780;13.904;100.620;2024-01-27T08:31:14;27.07;;;22.57;;
23222;SDS011;11780;13.904;100.620;2024-01-27T08:33:45;24.52;;;21.40;;
23222;SDS011;11780;13.904;100.620;2024-01-27T08:36:16;25.60;;;21.48;;
23222;SDS011;11780;13.904;100.620;2024-01-27T08:38:47;28.73;;;21.58;;
23222;SDS011;11780;13.904;100.620;2024-01-27T08:41:17;22.77;;;20.27;;
23222;SDS011;11780;13.904;100.620;2024-01-27T08:43:48;26.50;;;21.65;;
23222;SDS011;11780;13.904;100.620;2024-01-27T08:46:18;24.30;;;21.75;;
23222;SDS011;11780;13.904;100.620;2024-01-27T08:48:51;25.02;;;21.75;;
23222;SDS011;11780;13.904;100.620;2024-01-27T08:51:21;29.70;;;21.70;;
23222;SDS011;11780;13.904;100.620;2024-01-27T08:53:52;25.98;;;21.33;;
23222;SDS011;11780;13.904;100.620;2024-01-27T08:56:22;26.40;;;20.75;;
23222;SDS011;11780;13.904;100.620;2024-01-27T08:58:52;29.33;;;20.98;;
23222;SDS011;11780;13.904;100.620;2024-01-27T09:01:22;28.23;;;21.05;;
23222;SDS011;11780;13.904;100.620;2024-01-27T09:03:52;27.48;;;22.08;;
23222;SDS011;11780;13.904;100.620;2024-01-27T09:06:23;27.73;;;21.73;;
23222;SDS011;11780;13.904;100.620;2024-01-27T09:08:57;23.20;;;20.63;;
23222;SDS011;11780;13.904;100.620;2024-01-27T09:11:29;26.00;;;20.88;;
23222;SDS011;11780;13.904;100.620;2024-01-27T09:13:59;24.63;;;20.33;;
23222;SDS011;11780;13.904;100.620;2024-01-27T09:16:30;27.85;;;20.88;;
23222;SDS011;11780;13.904;100.620;2024-01-27T09:19:00;24.03;;;20.03;;
23222;SDS011;11780;13.904;100.620;2024-01-27T09:21:31;24.42;;;20.73;;
23222;SDS011;11780;13.904;100.620;2024-01-27T09:24:02;23.90;;;20.75;;
23222;SDS011;11780;13.904;100.620;2024-01-27T09:29:03;26.13;;;20.45;;
23222;SDS011;11780;13.904;100.620;2024-01-27T09:31:34;23.87;;;20.33;;
23222;SDS011;11780;13.904;100.620;2024-01-27T09:34:04;33.05;;;19.88;;
23222;SDS011;11780;13.904;100.620;2024-01-27T09:36:35;25.23;;;20.80;;
23222;SDS011;11780;13.904;100.620;2024-01-27T09:39:05;27.23;;;21.03;;
23222;SDS011;11780;13.904;100.620;2024-01-27T09:41:36;29.00;;;21.57;;
23222;SDS011;11780;13.904;100.620;2024-01-27T09:44:07;56.58;;;23.20;;
23222;SDS011;11780;13.904;100.620;2024-01-27T09:46:37;35.60;;;22.27;;
23222;SDS011;11780;13.904;100.620;2024-01-27T09:49:08;30.23;;;21.10;;
23222;SDS011;11780;13.904;100.620;2024-01-27T09:51:43;38.13;;;22.73;;
23222;SDS011;11780;13.904;100.620;2024-01-27T09:54:13;40.97;;;24.50;;
23222;SDS011;11780;13.904;100.620;2024-01-27T09:56:45;38.28;;;25.90;;
23222;SDS011;11780;13.904;100.620;2024-01-27T09:59:16;40.70;;;25.88;;
23222;SDS011;11780;13.904;100.620;2024-01-27T10:01:48;41.20;;;25.13;;
23222;SDS011;11780;13.904;100.620;2024-01-27T10:04:20;34.90;;;25.85;;
23222;SDS011;11780;13.904;100.620;2024-01-27T10:06:53;28.10;;;22.95;;
23222;SDS011;11780;13.904;100.620;2024-01-27T10:09:26;28.92;;;23.17;;
23222;SDS011;11780;13.904;100.620;2024-01-27T10:11:56;26.67;;;21.92;;
23222;SDS011;11780;13.904;100.620;2024-01-27T10:14:40;31.00;;;24.13;;
23222;SDS011;11780;13.904;100.620;2024-01-27T10:17:11;39.20;;;24.13;;
23222;SDS011;11780;13.904;100.620;2024-01-27T10:19:42;32.80;;;23.93;;
23222;SDS011;11780;13.904;100.620;2024-01-27T10:22:12;34.77;;;24.73;;
23222;SDS011;11780;13.904;100.620;2024-01-27T10:24:43;37.08;;;25.33;;
23222;SDS011;11780;13.904;100.620;2024-01-27T10:27:13;39.60;;;26.67;;
23222;SDS011;11780;13.904;100.620;2024-01-27T10:29:55;37.13;;;25.50;;
23222;SDS011;11780;13.904;100.620;2024-01-27T10:32:26;34.88;;;24.52;;
23222;SDS011;11780;13.904;100.620;2024-01-27T10:35:06;32.67;;;23.48;;
23222;SDS011;11780;13.904;100.620;2024-01-27T10:37:40;35.72;;;25.90;;
23222;SDS011;11780;13.904;100.620;2024-01-27T10:40:10;39.10;;;27.40;;
23222;SDS011;11780;13.904;100.620;2024-01-27T10:42:42;36.30;;;24.98;;
23222;SDS011;11780;13.904;100.620;2024-01-27T10:45:14;39.30;;;26.08;;
23222;SDS011;11780;13.904;100.620;2024-01-27T10:47:47;37.67;;;25.38;;
23222;SDS011;11780;13.904;100.620;2024-01-27T10:50:19;40.63;;;26.40;;
23222;SDS011;11780;13.904;100.620;2024-01-27T10:52:51;35.85;;;26.30;;
23222;SDS011;11780;13.904;100.620;2024-01-27T10:55:23;38.08;;;26.15;;
23222;SDS011;11780;13.904;100.620;2024-01-27T10:57:55;38.75;;;25.58;;
23222;SDS011;11780;13.904;100.620;2024-01-27T11:00:25;39.03;;;25.80;;
23222;SDS011;11780;13.904;100.620;2024-01-27T11:02:58;43.15;;;25.30;;
23222;SDS011;11780;13.904;100.620;2024-01-27T11:05:29;37.97;;;25.98;;
23222;SDS011;11780;13.904;100.620;2024-01-27T11:08:04;36.35;;;25.50;;
23222;SDS011;11780;13.904;100.620;2024-01-27T11:10:38;40.30;;;26.45;;
23222;SDS011;11780;13.904;100.620;2024-01-27T11:13:09;38.35;;;26.55;;
23222;SDS011;11780;13.904;100.620;2024-01-27T11:15:50;36.83;;;25.98;;
23222;SDS011;11780;13.904;100.620;2024-01-27T11:18:21;32.60;;;24.73;;
23222;SDS011;11780;13.904;100.620;2024-01-27T11:20:53;37.05;;;26.00;;
23222;SDS011;11780;13.904;100.620;2024-01-27T11:23:33;35.85;;;25.55;;
23222;SDS011;11780;13.904;100.620;2024-01-27T11:26:06;46.35;;;26.52;;
23222;SDS011;11780;13.904;100.620;2024-01-27T11:28:37;39.08;;;26.15;;
23222;SDS011;11780;13.904;100.620;2024-01-27T11:31:08;34.73;;;26.13;;
23222;SDS011;11780;13.904;100.620;2024-01-27T11:33:42;35.10;;;25.25;;
23222;SDS011;11780;13.904;100.620;2024-01-27T11:36:23;38.35;;;25.90;;
23222;SDS011;11780;13.904;100.620;2024-01-27T11:38:54;40.58;;;27.75;;
23222;SDS011;11780;13.904;100.620;2024-01-27T11:41:26;36.92;;;25.67;;
23222;SDS011;11780;13.904;100.620;2024-01-27T11:43:58;40.47;;;28.35;;
23222;SDS011;11780;13.904;100.620;2024-01-27T11:46:31;37.80;;;27.95;;
23222;SDS011;11780;13.904;100.620;2024-01-27T11:49:01;36.78;;;27.58;;
23222;SDS011;11780;13.904;100.620;2024-01-27T11:51:34;37.83;;;27.00;;
23222;SDS011;11780;13.904;100.620;2024-01-27T11:54:05;36.10;;;26.35;;
23222;SDS011;11780;13.904;100.620;2024-01-27T11:56:35;42.17;;;28.15;;
23222;SDS011;11780;13.904;100.620;2024-01-27T11:59:06;45.08;;;28.05;;
23222;SDS011;11780;13.904;100.620;2024-01-27T12:01:36;41.42;;;27.48;;
23222;SDS011;11780;13.904;100.620;2024-01-27T12:04:07;44.33;;;28.53;;
23222;SDS011;11780;13.904;100.620;2024-01-27T12:06:39;45.95;;;29.20;;
23222;SDS011;11780;13.904;100.620;2024-01-27T12:09:10;41.08;;;27.90;;
23222;SDS011;11780;13.904;100.620;2024-01-27T12:11:43;37.55;;;28.08;;
23222;SDS011;11780;13.904;100.620;2024-01-27T12:14:16;38.20;;;28.17;;
23222;SDS011;11780;13.904;100.620;2024-01-27T12:16:47;37.67;;;28.25;;
23222;SDS011;11780;13.904;100.620;2024-01-27T12:19:17;44.38;;;29.60;;
23222;SDS011;11780;13.904;100.620;2024-01-27T12:21:48;35.20;;;28.90;;
23222;SDS011;11780;13.904;100.620;2024-01-27T12:24:19;39.42;;;30.55;;
23222;SDS011;11780;13.904;100.620;2024-01-27T12:26:49;41.23;;;31.43;;
23222;SDS011;11780;13.904;100.620;2024-01-27T12:29:20;40.80;;;31.43;;
23222;SDS011;11780;13.904;100.620;2024-01-27T12:36:54;39.07;;;33.03;;
23222;SDS011;11780;13.904;100.620;2024-01-27T12:39:26;41.60;;;34.22;;
23222;SDS011;11780;13.904;100.620;2024-01-27T12:41:56;45.87;;;32.67;;
23222;SDS011;11780;13.904;100.620;2024-01-27T12:44:27;39.03;;;32.90;;
23222;SDS011;11780;13.904;100.620;2024-01-27T12:46:57;40.27;;;33.83;;
23222;SDS011;11780;13.904;100.620;2024-01-27T12:49:29;41.03;;;32.80;;
23222;SDS011;11780;13.904;100.620;2024-01-27T12:52:00;41.85;;;33.95;;
23222;SDS011;11780;13.904;100.620;2024-01-27T12:54:31;42.53;;;32.93;;
23222;SDS011;11780;13.904;100.620;2024-01-27T12:57:02;39.78;;;33.58;;
23222;SDS011;11780;13.904;100.620;2024-01-27T12:59:35;40.15;;;33.65;;
23222;SDS011;11780;13.904;100.620;2024-01-27T13:02:05;38.22;;;32.65;;
23222;SDS011;11780;13.904;100.620;2024-01-27T13:04:36;41.07;;;33.00;;
23222;SDS011;11780;13.904;100.620;2024-01-27T13:07:07;36.10;;;30.67;;
23222;SDS011;11780;13.904;100.620;2024-01-27T13:09:38;39.85;;;30.95;;
23222;SDS011;11780;13.904;100.620;2024-01-27T13:12:08;40.58;;;31.67;;
23222;SDS011;11780;13.904;100.620;2024-01-27T13:14:39;35.17;;;31.37;;
23222;SDS011;11780;13.904;100.620;2024-01-27T13:17:09;39.23;;;31.47;;
23222;SDS011;11780;13.904;100.620;2024-01-27T13:19:40;36.40;;;31.45;;
23222;SDS011;11780;13.904;100.620;2024-01-27T13:24:42;39.60;;;30.65;;
23222;SDS011;11780;13.904;100.620;2024-01-27T13:27:12;38.80;;;30.67;;
23222;SDS011;11780;13.904;100.620;2024-01-27T13:29:43;34.00;;;29.07;;
23222;SDS011;11780;13.904;100.620;2024-01-27T13:32:15;35.72;;;30.17;;
23222;SDS011;11780;13.904;100.620;2024-01-27T13:34:45;38.20;;;30.67;;
23222;SDS011;11780;13.904;100.620;2024-01-27T13:37:17;36.50;;;30.17;;
23222;SDS011;11780;13.904;100.620;2024-01-27T13:39:48;38.67;;;30.60;;
23222;SDS011;11780;13.904;100.620;2024-01-27T13:42:18;37.10;;;32.17;;
23222;SDS011;11780;13.904;100.620;2024-01-27T13:44:49;40.87;;;31.47;;
23222;SDS011;11780;13.904;100.620;2024-01-27T13:47:19;37.58;;;30.27;;
23222;SDS011;11780;13.904;100.620;2024-01-27T13:49:50;34.55;;;30.35;;
23222;SDS011;11780;13.904;100.620;2024-01-27T13:52:21;35.10;;;31.27;;
23222;SDS011;11780;13.904;100.620;2024-01-27T13:54:51;35.65;;;31.50;;
23222;SDS011;11780;13.904;100.620;2024-01-27T13:57:22;35.57;;;31.57;;
23222;SDS011;11780;13.904;100.620;2024-01-27T13:59:52;37.58;;;30.88;;
23222;SDS011;11780;13.904;100.620;2024-01-27T14:02:23;33.40;;;29.83;;
23222;SDS011;11780;13.904;100.620;2024-01-27T14:04:57;35.92;;;30.42;;
23222;SDS011;11780;13.904;100.620;2024-01-27T14:07:27;35.77;;;29.87;;
23222;SDS011;11780;13.904;100.620;2024-01-27T14:09:58;34.30;;;29.87;;
23222;SDS011;11780;13.904;100.620;2024-01-27T14:12:30;33.25;;;29.67;;
23222;SDS011;11780;13.904;100.620;2024-01-27T14:15:04;33.65;;;29.98;;
23222;SDS011;11780;13.904;100.620;2024-01-27T14:17:39;35.63;;;29.80;;
23222;SDS011;11780;13.904;100.620;2024-01-27T14:20:10;32.17;;;28.87;;
23222;SDS011;11780;13.904;100.620;2024-01-27T16:32:39;40.70;;;30.20;;
23222;SDS011;11780;13.904;100.620;2024-01-27T16:35:10;33.38;;;28.88;;
23222;SDS011;11780;13.904;100.620;2024-01-27T16:37:40;37.60;;;30.42;;
23222;SDS011;11780;13.904;100.620;2024-01-27T16:40:11;39.40;;;29.67;;
23222;SDS011;11780;13.904;100.620;2024-01-27T16:42:41;36.83;;;29.65;;